createdAt,value
2019-04-07T00:00:35.974Z,100802.44
2019-04-07T00:01:17.207Z,100802.44
2019-04-07T00:01:56.002Z,100797.30
2019-04-07T00:02:38.544Z,100793.79
2019-04-07T00:03:17.352Z,100802.11
2019-04-07T00:03:54.939Z,100800.47
2019-04-07T00:04:31.687Z,100789.41
2019-04-07T00:05:12.509Z,100789.41
2019-04-07T00:05:48.594Z,100796.11
2019-04-07T00:06:25.860Z,100791.47
2019-04-07T00:07:02.519Z,100796.87
2019-04-07T00:07:39.434Z,100796.87
2019-04-07T00:08:23.925Z,100797.13
2019-04-07T00:09:01.627Z,100792.56
2019-04-07T00:10:05.700Z,100793.33
2019-04-07T00:10:43.514Z,100796.80
2019-04-07T00:11:20.591Z,100796.80
2019-04-07T00:11:57.655Z,100790.80
2019-04-07T00:12:36.249Z,100792.11
2019-04-07T00:13:13.627Z,100786.70
2019-04-07T00:13:50.334Z,100786.70
2019-04-07T00:14:30.035Z,100792.81
2019-04-07T00:15:07.061Z,100796.02
2019-04-07T00:15:44.244Z,100792.98
2019-04-07T00:16:21.491Z,100792.98
2019-04-07T00:16:58.573Z,100796.69
2019-04-07T00:17:36.257Z,100795.51
2019-04-07T00:18:12.628Z,100789.79
2019-04-07T00:18:49.590Z,100789.79
2019-04-07T00:19:33.756Z,100789.49
2019-04-07T00:20:11.603Z,100794.61
2019-04-07T00:20:48.472Z,100803.13
2019-04-07T00:21:29.205Z,100807.95
2019-04-07T00:22:10.591Z,100807.95
2019-04-07T00:22:47.086Z,100796.63
2019-04-07T00:23:26.230Z,100799.23
2019-04-07T00:24:02.510Z,100800.84
2019-04-07T00:24:39.281Z,100800.84
2019-04-07T00:25:18.022Z,100799.99
2019-04-07T00:25:55.809Z,100797.89
2019-04-07T00:26:34.236Z,100797.89
2019-04-07T00:27:12.369Z,100807.01
2019-04-07T00:27:49.209Z,100807.01
2019-04-07T00:28:25.972Z,100811.41
2019-04-07T00:29:03.230Z,100811.41
2019-04-07T00:29:43.154Z,100816.47
2019-04-07T00:30:19.797Z,100815.12
2019-04-07T00:30:59.502Z,100815.12
2019-04-07T00:31:35.801Z,100822.14
2019-04-07T00:32:14.132Z,100810.30
2019-04-07T00:32:54.757Z,100821.03
2019-04-07T00:33:41.359Z,100822.14
2019-04-07T00:34:17.857Z,100822.14
2019-04-07T00:34:55.235Z,100826.74
2019-04-07T00:35:34.467Z,100829.44
2019-04-07T00:36:11.325Z,100829.44
2019-04-07T00:36:47.622Z,100834.55
2019-04-07T00:37:24.651Z,100833.13
2019-04-07T00:38:01.494Z,100833.13
2019-04-07T00:38:39.401Z,100836.16
2019-04-07T00:39:15.927Z,100837.65
2019-04-07T00:39:54.105Z,100844.00
2019-04-07T00:40:31.768Z,100844.00
2019-04-07T00:41:12.684Z,100841.92
2019-04-07T00:41:49.167Z,100841.14
2019-04-07T00:42:27.410Z,100841.14
2019-04-07T00:43:07.142Z,100846.59
2019-04-07T00:43:46.031Z,100851.02
2019-04-07T00:44:23.544Z,100853.82
2019-04-07T00:45:00.843Z,100856.09
2019-04-07T00:45:38.568Z,100860.81
2019-04-07T00:46:15.244Z,100858.98
2019-04-07T00:46:54.058Z,100862.04
2019-04-07T00:47:30.955Z,100864.94
2019-04-07T00:48:07.730Z,100868.27
2019-04-07T00:48:46.282Z,100870.52
2019-04-07T00:49:23.113Z,100863.31
2019-04-07T00:50:03.059Z,100873.77
2019-04-07T00:50:39.337Z,100874.19
2019-04-07T00:51:16.754Z,100872.98
2019-04-07T00:51:53.943Z,100873.41
2019-04-07T00:52:30.278Z,100875.51
2019-04-07T00:53:07.760Z,100876.12
2019-04-07T00:53:45.435Z,100881.92
2019-04-07T00:54:21.732Z,100880.14
2019-04-07T00:54:57.964Z,100882.02
2019-04-07T00:55:34.328Z,100883.93
2019-04-07T00:56:11.589Z,100880.66
2019-04-07T00:56:47.868Z,100885.38
2019-04-07T00:57:24.180Z,100889.44
2019-04-07T00:58:01.061Z,100883.84
2019-04-07T00:58:37.885Z,100886.61
2019-04-07T00:59:15.428Z,100886.16
2019-04-07T00:59:51.753Z,100886.52
2019-04-07T01:00:30.337Z,100890.76
2019-04-07T01:01:07.566Z,100892.25
2019-04-07T01:01:44.987Z,100891.55
2019-04-07T01:02:21.681Z,100888.00
2019-04-07T01:02:58.594Z,100891.94
2019-04-07T01:03:34.998Z,100892.98
2019-04-07T01:04:11.254Z,100895.63
2019-04-07T01:04:47.677Z,100899.46
2019-04-07T01:05:34.716Z,100897.61
2019-04-07T01:06:02.211Z,100897.37
2019-04-07T01:06:38.499Z,100900.50
2019-04-07T01:07:14.705Z,100903.14
2019-04-07T01:07:51.002Z,100903.09
2019-04-07T01:08:27.284Z,100905.16
2019-04-07T01:09:04.521Z,100899.62
2019-04-07T01:09:40.754Z,100908.44
2019-04-07T01:10:17.451Z,100902.58
2019-04-07T01:10:53.563Z,100903.72
2019-04-07T01:11:29.738Z,100904.09
2019-04-07T01:12:07.219Z,100907.42
2019-04-07T01:12:44.888Z,100906.12
2019-04-07T01:13:21.194Z,100911.27
2019-04-07T01:13:58.183Z,100913.23
2019-04-07T01:14:37.104Z,100911.64
2019-04-07T01:15:14.245Z,100910.59
2019-04-07T01:15:50.672Z,100911.95
2019-04-07T01:16:29.408Z,100916.02
2019-04-07T01:17:07.124Z,100912.25
2019-04-07T01:17:44.582Z,100911.45
2019-04-07T01:18:21.736Z,100910.59
2019-04-07T01:18:58.333Z,100914.29
2019-04-07T01:19:34.613Z,100916.17
2019-04-07T01:20:11.748Z,100907.91
2019-04-07T01:20:48.403Z,100907.79
2019-04-07T01:21:24.996Z,100913.06
2019-04-07T01:22:02.371Z,100912.63
2019-04-07T01:22:38.618Z,100915.70
2019-04-07T01:23:15.037Z,100922.88
2019-04-07T01:23:51.742Z,100914.86
2019-04-07T01:24:28.631Z,100917.20
2019-04-07T01:25:06.066Z,100921.07
2019-04-07T01:25:42.373Z,100925.19
2019-04-07T01:26:18.704Z,100924.67
2019-04-07T01:26:55.849Z,100930.66
2019-04-07T01:27:32.163Z,100928.43
2019-04-07T01:28:08.537Z,100933.09
2019-04-07T01:28:44.929Z,100938.05
2019-04-07T01:29:21.847Z,100940.27
2019-04-07T01:29:58.242Z,100947.43
2019-04-07T01:30:34.937Z,100943.62
2019-04-07T01:31:12.187Z,100948.31
2019-04-07T01:31:48.516Z,100950.23
2019-04-07T01:32:24.741Z,100959.69
2019-04-07T01:33:01.054Z,100957.81
2019-04-07T01:33:37.744Z,100958.55
2019-04-07T01:34:14.014Z,100958.17
2019-04-07T01:34:50.377Z,100956.95
2019-04-07T01:35:26.741Z,100962.02
2019-04-07T01:36:03.214Z,100957.01
2019-04-07T01:36:39.479Z,100962.33
2019-04-07T01:37:16.253Z,100961.59
2019-04-07T01:37:52.401Z,100957.89
2019-04-07T01:38:29.079Z,100968.88
2019-04-07T01:39:08.680Z,100965.13
2019-04-07T01:39:45.158Z,100968.39
2019-04-07T01:40:21.404Z,100973.70
2019-04-07T01:41:03.166Z,100970.56
2019-04-07T01:41:46.477Z,100968.16
2019-04-07T01:42:34.443Z,100971.23
2019-04-07T01:43:30.751Z,100972.94
2019-04-07T01:44:15.517Z,100970.59
2019-04-07T01:45:11.555Z,100970.22
2019-04-07T01:46:06.400Z,100967.26
2019-04-07T01:46:54.742Z,100970.58
2019-04-07T01:47:38.714Z,100960.59
2019-04-07T01:48:27.433Z,100956.53
2019-04-07T01:49:20.778Z,100956.28
2019-04-07T01:50:08.613Z,100964.66
2019-04-07T01:51:06.718Z,100963.56
2019-04-07T01:52:08.374Z,100966.52
2019-04-07T01:53:03.501Z,100962.94
2019-04-07T01:53:58.209Z,100971.77
2019-04-07T01:55:10.319Z,100970.84
2019-04-07T01:56:14.143Z,100971.30
2019-04-07T01:57:06.911Z,100966.55
2019-04-07T01:58:07.334Z,100961.37
2019-04-07T01:59:00.476Z,100967.91
2019-04-07T01:59:55.706Z,100970.75
2019-04-07T02:00:40.376Z,100966.42
2019-04-07T02:01:45.187Z,100973.45
2019-04-07T02:02:34.759Z,100967.29
2019-04-07T02:03:20.385Z,100975.85
2019-04-07T02:04:19.081Z,100973.94
2019-04-07T02:05:13.417Z,100974.08
2019-04-07T02:06:21.053Z,100970.77
2019-04-07T02:07:27.284Z,100971.68
2019-04-07T02:08:46.314Z,100962.87
2019-04-07T02:09:31.612Z,100967.43
2019-04-07T02:10:35.173Z,100964.34
2019-04-07T02:11:33.978Z,100966.39
2019-04-07T02:12:42.430Z,100960.53
2019-04-07T02:13:35.234Z,100966.94
2019-04-07T02:14:30.289Z,100969.34
2019-04-07T02:15:20.047Z,100975.09
2019-04-07T02:16:13.619Z,100975.65
2019-04-07T02:17:00.901Z,100978.67
2019-04-07T02:18:04.077Z,100979.30
2019-04-07T02:18:46.713Z,100982.33
2019-04-07T02:19:34.985Z,100987.00
2019-04-07T02:20:47.593Z,100989.44
2019-04-07T02:21:41.029Z,100989.16
2019-04-07T02:22:36.620Z,100987.56
2019-04-07T02:23:22.867Z,100993.06
2019-04-07T02:24:08.074Z,100993.48
2019-04-07T02:25:22.961Z,100992.99
2019-04-07T02:26:14.702Z,100994.97
2019-04-07T02:27:22.922Z,100992.75
2019-04-07T02:28:20.333Z,100992.30
2019-04-07T02:29:18.091Z,100989.80
2019-04-07T02:30:16.201Z,100993.94
2019-04-07T02:31:11.605Z,100996.09
2019-04-07T02:32:15.290Z,100986.52
2019-04-07T02:33:18.135Z,100990.52
2019-04-07T02:34:18.074Z,100992.71
2019-04-07T02:35:29.999Z,100987.58
2019-04-07T02:36:30.658Z,100993.47
2019-04-07T02:37:38.800Z,100985.94
2019-04-07T02:38:36.873Z,100991.02
2019-04-07T02:39:43.830Z,100988.52
2019-04-07T02:40:38.304Z,100993.84
2019-04-07T02:41:42.480Z,100989.93
2019-04-07T02:42:44.378Z,100993.86
2019-04-07T02:43:34.456Z,100993.04
2019-04-07T02:44:18.460Z,100991.16
2019-04-07T02:45:17.060Z,100999.97
2019-04-07T02:46:11.086Z,100992.95
2019-04-07T02:47:10.490Z,100999.81
2019-04-07T02:47:56.488Z,100999.02
2019-04-07T02:48:54.568Z,100995.95
2019-04-07T02:50:03.483Z,101002.17
2019-04-07T02:50:48.079Z,101006.83
2019-04-07T02:52:05.710Z,101010.92
2019-04-07T02:52:54.626Z,101001.57
2019-04-07T02:53:49.253Z,101006.63
2019-04-07T02:54:50.331Z,101010.20
2019-04-07T02:55:38.130Z,101015.95
2019-04-07T02:56:54.061Z,101011.05
2019-04-07T02:57:47.419Z,101011.91
2019-04-07T02:58:41.350Z,101012.17
2019-04-07T02:59:51.584Z,101014.62
2019-04-07T03:00:46.841Z,101015.45
2019-04-07T03:01:33.032Z,101012.36
2019-04-07T03:02:39.944Z,101015.92
2019-04-07T03:03:34.692Z,101014.91
2019-04-07T03:04:39.227Z,101005.08
2019-04-07T03:05:33.383Z,101012.52
2019-04-07T03:06:47.490Z,101009.53
2019-04-07T03:07:45.165Z,101005.36
2019-04-07T03:08:41.649Z,101009.45
2019-04-07T03:09:53.433Z,100998.81
2019-04-07T03:10:51.416Z,100999.54
2019-04-07T03:11:39.283Z,100997.72
2019-04-07T03:12:35.449Z,100998.44
2019-04-07T03:14:02.088Z,101003.00
2019-04-07T03:14:55.719Z,100999.19
2019-04-07T03:15:52.857Z,100999.00
2019-04-07T03:16:55.824Z,100996.88
2019-04-07T03:17:42.389Z,101000.68
2019-04-07T03:18:44.278Z,101004.13
2019-04-07T03:19:56.386Z,101004.13
2019-04-07T03:20:56.692Z,101009.83
2019-04-07T03:21:54.284Z,101009.27
2019-04-07T03:22:49.302Z,101007.22
2019-04-07T03:24:01.050Z,101009.64
2019-04-07T03:24:58.803Z,101008.15
2019-04-07T03:26:00.869Z,101003.27
2019-04-07T03:27:05.839Z,101008.42
2019-04-07T03:28:07.218Z,101009.44
2019-04-07T03:29:08.630Z,101007.03
2019-04-07T03:30:03.545Z,101005.33
2019-04-07T03:31:10.402Z,101003.27
2019-04-07T03:32:08.516Z,101005.34
2019-04-07T03:33:11.254Z,101006.25
2019-04-07T03:34:14.774Z,101004.19
2019-04-07T03:35:19.803Z,101003.27
2019-04-07T03:36:20.453Z,100999.16
2019-04-07T03:37:41.034Z,100988.66
2019-04-07T03:38:39.472Z,100995.30
2019-04-07T03:39:49.253Z,100982.05
2019-04-07T03:40:48.244Z,100983.88
2019-04-07T03:41:44.799Z,100986.84
2019-04-07T03:42:34.358Z,100977.72
2019-04-07T03:43:30.394Z,100981.72
2019-04-07T03:44:16.156Z,100980.69
2019-04-07T03:45:17.748Z,100982.12
2019-04-07T03:46:14.299Z,100982.75
2019-04-07T03:47:10.225Z,100984.56
2019-04-07T03:47:55.772Z,100974.38
2019-04-07T03:48:44.501Z,100977.14
2019-04-07T03:49:52.986Z,100975.28
2019-04-07T03:50:50.827Z,100974.42
2019-04-07T03:51:51.489Z,100971.12
2019-04-07T03:52:48.996Z,100970.84
2019-04-07T03:53:39.363Z,100965.39
2019-04-07T03:54:39.952Z,100964.42
2019-04-07T03:55:35.224Z,100967.48
2019-04-07T03:56:28.529Z,100965.09
2019-04-07T03:57:36.279Z,100960.11
2019-04-07T03:58:42.923Z,100961.19
2019-04-07T03:59:44.720Z,100959.11
2019-04-07T04:01:33.021Z,100955.63
2019-04-07T04:02:34.508Z,100959.84
2019-04-07T04:03:38.770Z,100951.83
2019-04-07T04:04:34.779Z,100947.42
2019-04-07T04:05:27.370Z,100945.91
2019-04-07T04:06:24.699Z,100947.09
2019-04-07T04:07:37.142Z,100946.34
2019-04-07T04:08:41.691Z,100950.84
2019-04-07T04:09:39.161Z,100952.30
2019-04-07T04:10:33.019Z,100944.04
2019-04-07T04:11:40.613Z,100938.63
2019-04-07T04:12:25.633Z,100947.86
2019-04-07T04:13:16.556Z,100945.13
2019-04-07T04:14:16.505Z,100946.27
2019-04-07T04:15:13.476Z,100946.27
2019-04-07T04:16:08.026Z,100943.13
2019-04-07T04:16:50.871Z,100935.13
2019-04-07T04:17:29.068Z,100938.72
2019-04-07T04:18:05.480Z,100936.66
2019-04-07T04:18:44.743Z,100935.67
2019-04-07T04:19:21.110Z,100934.36
2019-04-07T04:20:01.237Z,100933.73
2019-04-07T04:20:38.854Z,100942.34
2019-04-07T04:21:15.426Z,100939.45
2019-04-07T04:21:54.436Z,100933.17
2019-04-07T04:22:30.885Z,100938.28
2019-04-07T04:23:07.803Z,100940.96
2019-04-07T04:23:46.214Z,100937.47
2019-04-07T04:24:23.011Z,100938.34
2019-04-07T04:24:59.449Z,100934.97
2019-04-07T04:25:40.729Z,100935.92
2019-04-07T04:26:17.817Z,100943.70
2019-04-07T04:26:54.692Z,100941.69
2019-04-07T04:27:33.317Z,100936.63
2019-04-07T04:28:10.825Z,100942.49
2019-04-07T04:28:47.258Z,100942.42
2019-04-07T04:29:24.596Z,100938.25
2019-04-07T04:30:03.114Z,100939.44
2019-04-07T04:30:40.425Z,100937.09
2019-04-07T04:31:23.256Z,100944.23
2019-04-07T04:32:04.155Z,100946.84
2019-04-07T04:32:42.310Z,100942.03
2019-04-07T04:33:18.508Z,100941.91
2019-04-07T04:33:57.917Z,100943.83
2019-04-07T04:34:36.961Z,100937.11
2019-04-07T04:35:14.992Z,100939.89
2019-04-07T04:35:54.533Z,100944.59
2019-04-07T04:36:34.551Z,100939.22
2019-04-07T04:37:37.574Z,100938.80
2019-04-07T04:38:02.316Z,100942.37
2019-04-07T04:38:41.603Z,100938.36
2019-04-07T04:39:21.288Z,100945.95
2019-04-07T04:40:14.078Z,100939.72
2019-04-07T04:40:52.746Z,100936.45
2019-04-07T04:41:52.033Z,100939.41
2019-04-07T04:42:29.694Z,100931.83
2019-04-07T04:43:10.193Z,100936.95
2019-04-07T04:43:47.229Z,100935.83
2019-04-07T04:44:38.845Z,100929.30
2019-04-07T04:45:15.885Z,100930.90
2019-04-07T04:45:54.823Z,100927.63
2019-04-07T04:46:31.154Z,100924.73
2019-04-07T04:47:10.740Z,100929.30
2019-04-07T04:47:48.331Z,100923.00
2019-04-07T04:48:25.859Z,100920.78
2019-04-07T04:49:02.641Z,100917.20
2019-04-07T04:49:40.439Z,100927.19
2019-04-07T04:50:25.811Z,100921.17
2019-04-07T04:51:01.978Z,100912.72
2019-04-07T04:51:40.976Z,100912.44
2019-04-07T04:52:18.019Z,100917.00
2019-04-07T04:52:54.624Z,100915.26
2019-04-07T04:53:32.054Z,100911.67
2019-04-07T04:54:08.512Z,100906.42
2019-04-07T04:54:44.667Z,100908.20
2019-04-07T04:55:22.188Z,100903.50
2019-04-07T04:55:59.451Z,100900.75
2019-04-07T04:56:46.924Z,100906.35
2019-04-07T04:57:23.360Z,100909.24
2019-04-07T04:57:59.606Z,100894.72
2019-04-07T04:58:36.063Z,100894.09
2019-04-07T04:59:12.816Z,100898.90
2019-04-07T04:59:49.262Z,100902.73
2019-04-07T05:00:26.477Z,100893.71
2019-04-07T05:01:03.064Z,100898.27
2019-04-07T05:01:39.739Z,100891.80
2019-04-07T05:02:16.041Z,100897.16
2019-04-07T05:02:52.711Z,100897.67
2019-04-07T05:03:31.584Z,100897.08
2019-04-07T05:04:08.000Z,100898.43
2019-04-07T05:04:44.750Z,100892.85
2019-04-07T05:05:21.277Z,100894.47
2019-04-07T05:05:57.778Z,100892.61
2019-04-07T05:06:34.506Z,100893.27
2019-04-07T05:07:11.309Z,100889.59
2019-04-07T05:07:55.867Z,100884.06
2019-04-07T05:08:25.891Z,100883.19
2019-04-07T05:09:02.228Z,100889.03
2019-04-07T05:09:44.037Z,100880.50
2019-04-07T05:10:17.079Z,100881.70
2019-04-07T05:10:53.404Z,100886.73
2019-04-07T05:11:29.546Z,100878.41
2019-04-07T05:12:06.909Z,100878.52
2019-04-07T05:12:43.682Z,100878.36
2019-04-07T05:13:20.360Z,100878.51
2019-04-07T05:13:57.088Z,100880.27
2019-04-07T05:14:33.627Z,100879.41
2019-04-07T05:15:10.871Z,100875.72
2019-04-07T05:15:47.853Z,100869.41
2019-04-07T05:16:25.164Z,100871.55
2019-04-07T05:17:01.670Z,100872.76
2019-04-07T05:17:38.224Z,100866.91
2019-04-07T05:18:14.908Z,100869.50
2019-04-07T05:18:51.840Z,100870.47
2019-04-07T05:19:28.784Z,100864.42
2019-04-07T05:20:05.834Z,100860.09
2019-04-07T05:20:42.716Z,100858.50
2019-04-07T05:21:19.545Z,100855.75
2019-04-07T05:21:56.058Z,100852.67
2019-04-07T05:22:33.256Z,100856.60
2019-04-07T05:23:10.008Z,100857.37
2019-04-07T05:23:47.082Z,100854.01
2019-04-07T05:24:24.726Z,100851.48
2019-04-07T05:25:02.299Z,100851.44
2019-04-07T05:25:39.157Z,100847.37
2019-04-07T05:26:15.760Z,100848.11
2019-04-07T05:26:53.071Z,100847.67
2019-04-07T05:27:30.276Z,100846.10
2019-04-07T05:28:06.997Z,100852.02
2019-04-07T05:28:43.911Z,100856.11
2019-04-07T05:29:20.335Z,100852.30
2019-04-07T05:29:56.914Z,100853.17
2019-04-07T05:30:33.729Z,100857.27
2019-04-07T05:31:10.649Z,100855.27
2019-04-07T05:31:47.474Z,100854.72
2019-04-07T05:32:24.505Z,100860.68
2019-04-07T05:33:01.765Z,100858.41
2019-04-07T05:33:38.573Z,100856.12
2019-04-07T05:34:19.319Z,100860.51
2019-04-07T05:34:53.523Z,100857.42
2019-04-07T05:35:30.144Z,100853.28
2019-04-07T05:36:09.263Z,100856.78
2019-04-07T05:36:45.714Z,100852.00
2019-04-07T05:37:22.102Z,100849.38
2019-04-07T05:38:02.662Z,100848.81
2019-04-07T05:38:37.734Z,100848.34
2019-04-07T05:39:14.173Z,100842.45
2019-04-07T05:39:50.722Z,100842.47
2019-04-07T05:40:27.774Z,100838.66
2019-04-07T05:41:04.260Z,100837.80
2019-04-07T05:41:41.508Z,100837.14
2019-04-07T05:42:18.846Z,100841.50
2019-04-07T05:42:58.735Z,100843.56
2019-04-07T05:43:34.012Z,100834.25
2019-04-07T05:44:10.411Z,100832.91
2019-04-07T05:44:47.610Z,100837.39
2019-04-07T05:45:24.802Z,100836.17
2019-04-07T05:46:01.743Z,100836.86
2019-04-07T05:46:41.462Z,100835.03
2019-04-07T05:47:16.538Z,100835.91
2019-04-07T05:47:53.477Z,100831.62
2019-04-07T05:48:30.156Z,100831.38
2019-04-07T05:49:06.662Z,100835.27
2019-04-07T05:49:43.383Z,100833.92
2019-04-07T05:50:20.119Z,100834.84
2019-04-07T05:50:59.934Z,100828.23
2019-04-07T05:51:34.217Z,100828.92
2019-04-07T05:52:10.504Z,100825.03
2019-04-07T05:52:46.827Z,100824.47
2019-04-07T05:53:23.462Z,100823.54
2019-04-07T05:54:00.296Z,100819.34
2019-04-07T05:54:37.856Z,100826.83
2019-04-07T05:55:15.199Z,100822.39
2019-04-07T05:55:55.386Z,100818.41
2019-04-07T05:56:32.516Z,100821.37
2019-04-07T05:57:09.674Z,100812.49
2019-04-07T05:57:46.516Z,100813.06
2019-04-07T05:58:23.318Z,100808.37
2019-04-07T05:58:59.669Z,100805.64
2019-04-07T05:59:36.522Z,100806.06
2019-04-07T06:00:16.349Z,100801.51
2019-04-07T06:00:52.102Z,100797.16
2019-04-07T06:01:28.417Z,100792.60
2019-04-07T06:02:04.650Z,100792.82
2019-04-07T06:02:41.630Z,100790.77
2019-04-07T06:03:18.517Z,100786.56
2019-04-07T06:03:55.420Z,100785.54
2019-04-07T06:04:31.769Z,100783.03
2019-04-07T06:05:08.472Z,100790.31
2019-04-07T06:05:48.259Z,100785.04
2019-04-07T06:06:22.672Z,100785.27
2019-04-07T06:06:59.110Z,100784.66
2019-04-07T06:07:36.749Z,100776.34
2019-04-07T06:08:24.657Z,100774.52
2019-04-07T06:08:51.832Z,100776.08
2019-04-07T06:09:28.178Z,100774.36
2019-04-07T06:10:05.370Z,100774.01
2019-04-07T06:10:41.612Z,100776.05
2019-04-07T06:11:17.864Z,100768.66
2019-04-07T06:11:54.481Z,100772.41
2019-04-07T06:12:31.503Z,100762.41
2019-04-07T06:13:11.282Z,100764.69
2019-04-07T06:13:46.624Z,100769.70
2019-04-07T06:14:24.309Z,100764.92
2019-04-07T06:15:00.656Z,100762.43
2019-04-07T06:15:37.105Z,100766.86
2019-04-07T06:16:14.024Z,100766.41
2019-04-07T06:16:53.594Z,100764.91
2019-04-07T06:17:28.499Z,100764.45
2019-04-07T06:18:05.181Z,100764.00
2019-04-07T06:18:42.147Z,100764.00
2019-04-07T06:19:19.141Z,100762.17
2019-04-07T06:19:55.787Z,100758.55
2019-04-07T06:20:32.345Z,100757.86
2019-04-07T06:21:09.316Z,100750.26
2019-04-07T06:21:47.355Z,100755.84
2019-04-07T06:22:23.839Z,100748.26
2019-04-07T06:23:00.392Z,100750.30
2019-04-07T06:23:36.582Z,100753.88
2019-04-07T06:24:13.397Z,100750.46
2019-04-07T06:24:50.236Z,100756.84
2019-04-07T06:25:27.321Z,100749.36
2019-04-07T06:26:06.662Z,100750.50
2019-04-07T06:26:43.914Z,100751.19
2019-04-07T06:27:19.691Z,100748.91
2019-04-07T06:27:56.848Z,100746.29
2019-04-07T06:28:33.815Z,100747.09
2019-04-07T06:29:10.550Z,100752.89
2019-04-07T06:29:46.998Z,100749.48
2019-04-07T06:30:28.131Z,100746.41
2019-04-07T06:31:03.525Z,100751.07
2019-04-07T06:31:44.858Z,100745.27
2019-04-07T06:32:21.892Z,100745.72
2019-04-07T06:32:58.217Z,100751.87
2019-04-07T06:33:37.370Z,100747.42
2019-04-07T06:34:12.342Z,100748.98
2019-04-07T06:34:50.024Z,100747.05
2019-04-07T06:35:27.035Z,100743.25
2019-04-07T06:36:03.852Z,100743.78
2019-04-07T06:36:40.821Z,100739.23
2019-04-07T06:37:17.758Z,100733.55
2019-04-07T06:37:55.782Z,100730.81
2019-04-07T06:38:35.585Z,100734.11
2019-04-07T06:39:11.157Z,100736.50
2019-04-07T06:39:50.728Z,100727.85
2019-04-07T06:40:25.571Z,100728.54
2019-04-07T06:41:03.026Z,100724.45
2019-04-07T06:41:39.509Z,100725.92
2019-04-07T06:42:15.778Z,100726.39
2019-04-07T06:42:52.073Z,100724.03
2019-04-07T06:43:28.195Z,100720.62
2019-04-07T06:44:12.683Z,100722.90
2019-04-07T06:44:42.660Z,100720.02
2019-04-07T06:45:22.754Z,100730.41
2019-04-07T06:46:24.629Z,100727.48
2019-04-07T06:47:06.697Z,100725.89
2019-04-07T06:47:46.117Z,100728.63
2019-04-07T06:48:22.307Z,100719.78
2019-04-07T06:49:11.184Z,100721.37
2019-04-07T06:50:08.599Z,100714.55
2019-04-07T06:51:03.912Z,100711.59
2019-04-07T06:51:46.491Z,100714.20
2019-04-07T06:52:34.583Z,100709.31
2019-04-07T06:53:18.917Z,100708.52
2019-04-07T06:54:03.594Z,100711.70
2019-04-07T06:54:56.195Z,100707.03
2019-04-07T06:55:49.708Z,100712.27
2019-04-07T06:56:42.058Z,100716.37
2019-04-07T06:57:51.877Z,100711.82
2019-04-07T06:58:45.464Z,100713.38
2019-04-07T06:59:49.068Z,100710.42
2019-04-07T07:00:43.324Z,100708.45
2019-04-07T07:01:41.115Z,100713.76
2019-04-07T07:02:47.910Z,100707.39
2019-04-07T07:03:55.192Z,100708.53
2019-04-07T07:04:45.816Z,100708.23
2019-04-07T07:05:33.579Z,100714.48
2019-04-07T07:06:30.979Z,100711.08
2019-04-07T07:07:24.130Z,100705.50
2019-04-07T07:08:12.657Z,100711.48
2019-04-07T07:09:08.292Z,100711.37
2019-04-07T07:10:06.631Z,100703.98
2019-04-07T07:11:05.821Z,100705.39
2019-04-07T07:12:18.293Z,100703.56
2019-04-07T07:13:01.525Z,100703.15
2019-04-07T07:13:54.861Z,100700.67
2019-04-07T07:14:44.965Z,100698.73
2019-04-07T07:15:33.782Z,100695.89
2019-04-07T07:16:29.948Z,100693.16
2019-04-07T07:17:21.170Z,100696.12
2019-04-07T07:18:25.664Z,100694.98
2019-04-07T07:19:19.691Z,100694.52
2019-04-07T07:20:11.286Z,100687.23
2019-04-07T07:21:09.085Z,100685.66
2019-04-07T07:22:14.812Z,100683.95
2019-04-07T07:22:56.203Z,100676.90
2019-04-07T07:23:36.382Z,100673.48
2019-04-07T07:24:14.672Z,100674.84
2019-04-07T07:24:53.201Z,100674.16
2019-04-07T07:25:31.140Z,100664.28
2019-04-07T07:26:07.289Z,100662.45
2019-04-07T07:26:44.138Z,100663.35
2019-04-07T07:27:20.765Z,100664.28
2019-04-07T07:27:57.767Z,100661.20
2019-04-07T07:28:34.766Z,100661.07
2019-04-07T07:29:13.229Z,100661.43
2019-04-07T07:29:51.898Z,100663.59
2019-04-07T07:30:27.216Z,100661.43
2019-04-07T07:31:04.295Z,100667.67
2019-04-07T07:31:40.505Z,100660.84
2019-04-07T07:32:16.987Z,100667.67
2019-04-07T07:32:53.301Z,100665.42
2019-04-07T07:33:29.633Z,100667.22
2019-04-07T07:34:09.277Z,100665.41
2019-04-07T07:34:43.918Z,100662.45
2019-04-07T07:35:20.242Z,100664.28
2019-04-07T07:35:57.011Z,100658.34
2019-04-07T07:36:33.832Z,100657.44
2019-04-07T07:37:10.604Z,100657.89
2019-04-07T07:37:47.601Z,100653.34
2019-04-07T07:38:24.716Z,100657.89
2019-04-07T07:39:02.451Z,100650.04
2019-04-07T07:39:41.950Z,100650.84
2019-04-07T07:40:18.349Z,100648.10
2019-04-07T07:40:54.710Z,100649.02
2019-04-07T07:41:31.205Z,100637.64
2019-04-07T07:42:08.196Z,100640.81
2019-04-07T07:42:44.447Z,100641.27
2019-04-07T07:43:21.104Z,100643.78
2019-04-07T07:44:01.422Z,100643.33
2019-04-07T07:44:37.552Z,100644.47
2019-04-07T07:45:14.000Z,100639.92
2019-04-07T07:45:51.233Z,100645.38
2019-04-07T07:46:27.917Z,100642.65
2019-04-07T07:47:04.230Z,100642.88
2019-04-07T07:47:40.442Z,100645.26
2019-04-07T07:48:17.495Z,100640.14
2019-04-07T07:48:57.081Z,100638.20
2019-04-07T07:49:37.058Z,100635.14
2019-04-07T07:50:13.572Z,100643.45
2019-04-07T07:50:50.156Z,100642.89
2019-04-07T07:51:26.754Z,100638.23
2019-04-07T07:52:03.143Z,100637.43
2019-04-07T07:52:39.891Z,100631.72
2019-04-07T07:53:16.825Z,100632.40
2019-04-07T07:53:56.582Z,100635.36
2019-04-07T07:54:31.613Z,100632.63
2019-04-07T07:55:08.114Z,100635.58
2019-04-07T07:55:44.546Z,100627.63
2019-04-07T07:56:21.355Z,100628.10
2019-04-07T07:56:58.066Z,100623.09
2019-04-07T07:57:35.476Z,100623.09
2019-04-07T07:58:12.230Z,100616.05
2019-04-07T07:58:49.270Z,100617.86
2019-04-07T07:59:25.464Z,100617.64
2019-04-07T08:00:05.147Z,100614.68
2019-04-07T08:00:42.176Z,100619.00
2019-04-07T08:03:12.074Z,100610.80
2019-04-07T08:03:52.987Z,100613.08
2019-04-07T08:04:32.130Z,100605.69
2019-04-07T08:05:09.259Z,100612.39
2019-04-07T08:05:49.348Z,100614.32
2019-04-07T08:06:28.361Z,100613.19
2019-04-07T08:07:09.048Z,100611.70
2019-04-07T08:07:51.223Z,100612.39
2019-04-07T08:08:28.946Z,100616.60
2019-04-07T08:09:12.819Z,100613.08
2019-04-07T08:09:45.521Z,100613.77
2019-04-07T08:10:25.008Z,100612.17
2019-04-07T08:11:02.635Z,100616.50
2019-04-07T08:11:39.744Z,100610.59
2019-04-07T08:12:18.102Z,100617.41
2019-04-07T08:12:57.364Z,100616.05
2019-04-07T08:13:43.346Z,100616.84
2019-04-07T08:14:18.234Z,100618.77
2019-04-07T08:15:03.427Z,100617.19
2019-04-07T08:15:41.445Z,100616.95
2019-04-07T08:16:19.250Z,100619.43
2019-04-07T08:17:00.172Z,100625.46
2019-04-07T08:17:35.637Z,100628.53
2019-04-07T08:18:12.459Z,100622.05